This is the latest recevied weather packets stored in our database for station/object N6RDS. If no packets are shown the sender has not sent any weather packets the latest 1 day(s).
| Time | Temp. | Humidity | Pressure | Rain* | Wind** | Luminosity | Snow |
|---|---|---|---|---|---|---|---|
| 1778011072 | 10° C | 51% | 1018.9 hPa | 0 mm | 1.79 m/s, 212° | 74 W/m² | - |
| 1778010771 | 10° C | 50% | 1018.8 hPa | 0 mm | 1.79 m/s, 206° | 84 W/m² | - |
| 1778010467 | 10.56° C | 48% | 1019 hPa | 0 mm | 1.79 m/s, 202° | 103 W/m² | - |
| 1778010164 | 10.56° C | 47% | 1018.8 hPa | 0 mm | 0.45 m/s, 143° | 118 W/m² | - |
| 1778009859 | 11.11° C | 48% | 1018.9 hPa | 0 mm | 2.24 m/s, 156° | 117 W/m² | - |
| 1778009557 | 11.67° C | 47% | 1018.9 hPa | 0 mm | 3.13 m/s, 199° | 138 W/m² | - |
| 1778009256 | 11.11° C | 48% | 1019 hPa | 0 mm | 1.34 m/s, 225° | 186 W/m² | - |
| 1778008953 | 11.11° C | 48% | 1019 hPa | 0 mm | 1.79 m/s, 211° | 203 W/m² | - |
| 1778008651 | 12.22° C | 47% | 1019.1 hPa | 0 mm | 0.45 m/s, 224° | 227 W/m² | - |
| 1778008349 | 12.78° C | 46% | 1019.1 hPa | 0 mm | 0.45 m/s, 136° | 394 W/m² | - |
| 1778008045 | 12.22° C | 51% | 1019 hPa | 0 mm | 0 m/s | 625 W/m² | - |
| 1778007745 | 12.78° C | 51% | 1019 hPa | 0 mm | 1.34 m/s, 218° | 675 W/m² | - |
| 1778007442 | 12.78° C | 51% | 1019.1 hPa | 0 mm | 1.34 m/s, 139° | 679 W/m² | - |
| 1778007138 | 11.67° C | 52% | 1019 hPa | 0 mm | 0.45 m/s, 113° | 630 W/m² | - |
| 1778006834 | 11.11° C | 51% | 1019 hPa | 0 mm | 1.34 m/s, 210° | 315 W/m² | - |
| 1778006532 | 11.67° C | 51% | 1019.1 hPa | 0 mm | 2.24 m/s, 196° | 233 W/m² | - |
| 1778006228 | 11.67° C | 48% | 1019.1 hPa | 0 mm | 0.45 m/s, 185° | 252 W/m² | - |
| 1778005926 | 11.67° C | 47% | 1019 hPa | 0 mm | 0.89 m/s, 146° | 289 W/m² | - |
| 1778005622 | 12.22° C | 47% | 1019 hPa | 0 mm | 2.24 m/s, 178° | 210 W/m² | - |
| 1778005319 | 13.33° C | 43% | 1018.8 hPa | 0 mm | 1.34 m/s, 148° | 327 W/m² | - |
| 1778005015 | 12.78° C | 41% | 1018.9 hPa | 0 mm | 1.34 m/s, 160° | 264 W/m² | - |
| 1778004713 | 12.78° C | 43% | 1018.6 hPa | 0 mm | 0 m/s | 158 W/m² | - |
| 1778004409 | 13.33° C | 41% | 1019 hPa | 0 mm | 0.45 m/s, 155° | 840 W/m² | - |
| 1778004107 | 11.67° C | 45% | 1019 hPa | 0 mm | 1.79 m/s, 182° | 827 W/m² | - |
| 1778003802 | 11.11° C | 47% | 1019.2 hPa | 0 mm | 0.45 m/s, 151° | 148 W/m² | - |
* Rain latest hour (hover to see other rain measurements)
** Current wind speed in m/s (hover to see current wind gust speed)